sensor_id;sensor_type;location;lat;lon;timestamp;pressure;altitude;pressure_sealevel;temperature;humidity
41230;BME280;26964;50.428;19.218;2023-04-03T00:01:00;1023.1;;;1.1;80.9
41230;BME280;26964;50.428;19.218;2023-04-03T00:02:00;1023.0;;;1.1;80.9
41230;BME280;26964;50.428;19.218;2023-04-03T00:03:00;1023.1;;;1.1;80.9
41230;BME280;26964;50.428;19.218;2023-04-03T00:04:00;1023.1;;;1.0;80.9
41230;BME280;26964;50.428;19.218;2023-04-03T00:05:00;1023.1;;;1.0;80.9
41230;BME280;26964;50.428;19.218;2023-04-03T00:05:59;1023.1;;;1.0;80.9
41230;BME280;26964;50.428;19.218;2023-04-03T00:07:00;1023.1;;;1.0;80.9
41230;BME280;26964;50.428;19.218;2023-04-03T00:08:00;1023.1;;;1.0;80.9
41230;BME280;26964;50.428;19.218;2023-04-03T00:09:00;1023.0;;;1.0;80.9
41230;BME280;26964;50.428;19.218;2023-04-03T00:10:00;1023.1;;;1.0;80.9
41230;BME280;26964;50.428;19.218;2023-04-03T00:11:00;1023.1;;;1.0;80.9
41230;BME280;26964;50.428;19.218;2023-04-03T00:12:00;1023.1;;;1.0;80.9
41230;BME280;26964;50.428;19.218;2023-04-03T00:13:00;1023.1;;;1.0;80.9
41230;BME280;26964;50.428;19.218;2023-04-03T00:14:00;1023.1;;;1.0;80.9
41230;BME280;26964;50.428;19.218;2023-04-03T00:14:59;1023.1;;;1.0;81.0
41230;BME280;26964;50.428;19.218;2023-04-03T00:16:00;1023.1;;;1.0;80.9
41230;BME280;26964;50.428;19.218;2023-04-03T00:17:00;1023.0;;;1.0;80.9
41230;BME280;26964;50.428;19.218;2023-04-03T00:18:01;1023.0;;;1.0;80.9
41230;BME280;26964;50.428;19.218;2023-04-03T00:18:59;1023.0;;;1.0;80.9
41230;BME280;26964;50.428;19.218;2023-04-03T00:20:00;1023.0;;;0.9;80.9
41230;BME280;26964;50.428;19.218;2023-04-03T00:21:00;1023.1;;;0.9;81.0
41230;BME280;26964;50.428;19.218;2023-04-03T00:22:00;1023.0;;;0.9;81.0
41230;BME280;26964;50.428;19.218;2023-04-03T00:23:00;1023.0;;;0.9;81.0
41230;BME280;26964;50.428;19.218;2023-04-03T00:24:00;1023.0;;;0.9;80.9
41230;BME280;26964;50.428;19.218;2023-04-03T00:25:00;1023.0;;;0.9;81.0
41230;BME280;26964;50.428;19.218;2023-04-03T00:25:59;1023.0;;;0.9;81.0
41230;BME280;26964;50.428;19.218;2023-04-03T00:27:00;1023.0;;;0.9;81.0
41230;BME280;26964;50.428;19.218;2023-04-03T00:28:00;1023.0;;;0.9;81.0
41230;BME280;26964;50.428;19.218;2023-04-03T00:28:59;1023.0;;;0.9;81.0
41230;BME280;26964;50.428;19.218;2023-04-03T00:30:00;1023.0;;;0.9;81.1
41230;BME280;26964;50.428;19.218;2023-04-03T00:30:59;1023.0;;;0.9;81.0
41230;BME280;26964;50.428;19.218;2023-04-03T00:32:00;1023.1;;;0.9;81.1
41230;BME280;26964;50.428;19.218;2023-04-03T00:33:00;1023.0;;;0.9;81.1
41230;BME280;26964;50.428;19.218;2023-04-03T00:34:00;1023.1;;;0.9;81.0
41230;BME280;26964;50.428;19.218;2023-04-03T00:34:59;1023.1;;;0.9;81.0
41230;BME280;26964;50.428;19.218;2023-04-03T00:36:05;1023.1;;;0.9;81.1
41230;BME280;26964;50.428;19.218;2023-04-03T00:37:00;1023.1;;;0.9;81.1
41230;BME280;26964;50.428;19.218;2023-04-03T00:37:59;1023.1;;;0.8;81.2
41230;BME280;26964;50.428;19.218;2023-04-03T00:39:00;1023.0;;;0.8;81.1
41230;BME280;26964;50.428;19.218;2023-04-03T00:39:59;1023.0;;;0.8;81.1
41230;BME280;26964;50.428;19.218;2023-04-03T00:41:00;1023.0;;;0.8;81.1
41230;BME280;26964;50.428;19.218;2023-04-03T00:42:00;1023.0;;;0.8;81.1
41230;BME280;26964;50.428;19.218;2023-04-03T00:43:05;1023.1;;;0.8;81.1
41230;BME280;26964;50.428;19.218;2023-04-03T00:44:00;1023.0;;;0.9;81.1
41230;BME280;26964;50.428;19.218;2023-04-03T00:45:59;1023.1;;;0.9;81.1
41230;BME280;26964;50.428;19.218;2023-04-03T00:46:59;1023.2;;;0.9;81.2
41230;BME280;26964;50.428;19.218;2023-04-03T00:48:01;1023.1;;;0.9;81.2
41230;BME280;26964;50.428;19.218;2023-04-03T00:49:00;1023.2;;;0.9;81.3
41230;BME280;26964;50.428;19.218;2023-04-03T00:50:00;1023.2;;;0.9;81.3
41230;BME280;26964;50.428;19.218;2023-04-03T00:51:00;1023.1;;;0.9;81.2
41230;BME280;26964;50.428;19.218;2023-04-03T00:51:59;1023.1;;;0.9;81.2
41230;BME280;26964;50.428;19.218;2023-04-03T00:53:00;1023.0;;;0.9;81.3
41230;BME280;26964;50.428;19.218;2023-04-03T00:54:04;1023.1;;;0.9;81.2
41230;BME280;26964;50.428;19.218;2023-04-03T00:55:04;1023.1;;;0.9;81.2
41230;BME280;26964;50.428;19.218;2023-04-03T00:56:00;1023.1;;;0.9;81.2
41230;BME280;26964;50.428;19.218;2023-04-03T00:56:59;1023.1;;;0.9;81.3
41230;BME280;26964;50.428;19.218;2023-04-03T00:58:00;1023.1;;;0.9;81.3
41230;BME280;26964;50.428;19.218;2023-04-03T00:59:03;1023.1;;;0.9;81.2
41230;BME280;26964;50.428;19.218;2023-04-03T01:00:03;1023.1;;;0.9;81.2
41230;BME280;26964;50.428;19.218;2023-04-03T01:01:04;1023.2;;;0.9;81.2
41230;BME280;26964;50.428;19.218;2023-04-03T01:02:00;1023.2;;;0.9;81.3
41230;BME280;26964;50.428;19.218;2023-04-03T01:02:59;1023.1;;;0.9;81.2
41230;BME280;26964;50.428;19.218;2023-04-03T01:04:00;1023.2;;;0.9;81.3
41230;BME280;26964;50.428;19.218;2023-04-03T01:04:59;1023.2;;;0.9;81.2
41230;BME280;26964;50.428;19.218;2023-04-03T01:05:59;1023.1;;;0.9;81.2
41230;BME280;26964;50.428;19.218;2023-04-03T01:07:03;1023.3;;;0.9;81.2
41230;BME280;26964;50.428;19.218;2023-04-03T01:07:59;1023.2;;;0.9;81.2
41230;BME280;26964;50.428;19.218;2023-04-03T01:09:00;1023.3;;;0.9;81.3
41230;BME280;26964;50.428;19.218;2023-04-03T01:10:02;1023.2;;;0.9;81.2
41230;BME280;26964;50.428;19.218;2023-04-03T01:11:00;1023.2;;;0.9;81.2
41230;BME280;26964;50.428;19.218;2023-04-03T01:12:59;1023.3;;;0.8;81.3
41230;BME280;26964;50.428;19.218;2023-04-03T01:14:00;1023.1;;;0.8;81.2
41230;BME280;26964;50.428;19.218;2023-04-03T01:15:01;1023.2;;;0.8;81.2
41230;BME280;26964;50.428;19.218;2023-04-03T01:16:00;1023.2;;;0.8;81.2
41230;BME280;26964;50.428;19.218;2023-04-03T01:16:59;1023.2;;;0.8;81.2
41230;BME280;26964;50.428;19.218;2023-04-03T01:18:00;1023.2;;;0.8;81.2
41230;BME280;26964;50.428;19.218;2023-04-03T01:19:00;1023.2;;;0.8;81.2
41230;BME280;26964;50.428;19.218;2023-04-03T01:23:05;1023.3;;;0.8;81.2
41230;BME280;26964;50.428;19.218;2023-04-03T01:25:00;1023.2;;;0.7;81.3
41230;BME280;26964;50.428;19.218;2023-04-03T01:26:00;1023.4;;;0.7;81.2
41230;BME280;26964;50.428;19.218;2023-04-03T01:27:01;1023.3;;;0.7;81.2
41230;BME280;26964;50.428;19.218;2023-04-03T01:28:00;1023.3;;;0.7;81.2
41230;BME280;26964;50.428;19.218;2023-04-03T01:28:59;1023.4;;;0.7;81.2
41230;BME280;26964;50.428;19.218;2023-04-03T01:29:59;1023.4;;;0.7;81.2
41230;BME280;26964;50.428;19.218;2023-04-03T01:31:04;1023.4;;;0.7;81.3
41230;BME280;26964;50.428;19.218;2023-04-03T01:32:01;1023.5;;;0.7;81.3
41230;BME280;26964;50.428;19.218;2023-04-03T01:32:59;1023.4;;;0.7;81.3
41230;BME280;26964;50.428;19.218;2023-04-03T01:33:59;1023.4;;;0.7;81.4
41230;BME280;26964;50.428;19.218;2023-04-03T01:35:00;1023.4;;;0.7;81.3
41230;BME280;26964;50.428;19.218;2023-04-03T01:36:00;1023.5;;;0.7;81.3
41230;BME280;26964;50.428;19.218;2023-04-03T01:37:00;1023.4;;;0.7;81.3
41230;BME280;26964;50.428;19.218;2023-04-03T01:37:59;1023.4;;;0.6;81.3
41230;BME280;26964;50.428;19.218;2023-04-03T01:39:00;1023.4;;;0.6;81.3
41230;BME280;26964;50.428;19.218;2023-04-03T01:39:59;1023.4;;;0.6;81.3
41230;BME280;26964;50.428;19.218;2023-04-03T01:40:59;1023.4;;;0.6;81.3
41230;BME280;26964;50.428;19.218;2023-04-03T01:42:00;1023.4;;;0.6;81.4
41230;BME280;26964;50.428;19.218;2023-04-03T01:43:00;1023.5;;;0.6;81.5
41230;BME280;26964;50.428;19.218;2023-04-03T01:44:00;1023.5;;;0.6;81.4
41230;BME280;26964;50.428;19.218;2023-04-03T01:44:59;1023.5;;;0.6;81.3
41230;BME280;26964;50.428;19.218;2023-04-03T01:46:01;1023.4;;;0.6;81.3
41230;BME280;26964;50.428;19.218;2023-04-03T01:47:00;1023.5;;;0.6;81.3
41230;BME280;26964;50.428;19.218;2023-04-03T01:47:59;1023.5;;;0.6;81.3
41230;BME280;26964;50.428;19.218;2023-04-03T01:48:59;1023.5;;;0.6;81.3
41230;BME280;26964;50.428;19.218;2023-04-03T01:50:00;1023.5;;;0.6;81.3
41230;BME280;26964;50.428;19.218;2023-04-03T01:51:00;1023.6;;;0.6;81.4
41230;BME280;26964;50.428;19.218;2023-04-03T01:51:59;1023.6;;;0.6;81.3
41230;BME280;26964;50.428;19.218;2023-04-03T01:52:59;1023.5;;;0.6;81.3
41230;BME280;26964;50.428;19.218;2023-04-03T01:53:59;1023.6;;;0.6;81.3
41230;BME280;26964;50.428;19.218;2023-04-03T01:55:00;1023.5;;;0.6;81.4
41230;BME280;26964;50.428;19.218;2023-04-03T01:55:59;1023.6;;;0.5;81.3
41230;BME280;26964;50.428;19.218;2023-04-03T01:57:00;1023.5;;;0.5;81.4
41230;BME280;26964;50.428;19.218;2023-04-03T01:58:00;1023.5;;;0.5;81.3
41230;BME280;26964;50.428;19.218;2023-04-03T01:58:59;1023.6;;;0.5;81.3
41230;BME280;26964;50.428;19.218;2023-04-03T02:00:00;1023.5;;;0.5;81.4
41230;BME280;26964;50.428;19.218;2023-04-03T02:00:59;1023.5;;;0.5;81.3
41230;BME280;26964;50.428;19.218;2023-04-03T02:02:00;1023.5;;;0.5;81.4
41230;BME280;26964;50.428;19.218;2023-04-03T02:03:00;1023.6;;;0.5;81.4
41230;BME280;26964;50.428;19.218;2023-04-03T02:04:00;1023.6;;;0.5;81.3
41230;BME280;26964;50.428;19.218;2023-04-03T02:05:00;1023.5;;;0.5;81.3
41230;BME280;26964;50.428;19.218;2023-04-03T02:06:00;1023.5;;;0.5;81.4
41230;BME280;26964;50.428;19.218;2023-04-03T02:06:59;1023.6;;;0.5;81.4
41230;BME280;26964;50.428;19.218;2023-04-03T02:07:59;1023.7;;;0.5;81.4
41230;BME280;26964;50.428;19.218;2023-04-03T02:08:59;1023.6;;;0.5;81.4
41230;BME280;26964;50.428;19.218;2023-04-03T02:09:59;1023.6;;;0.4;81.3
41230;BME280;26964;50.428;19.218;2023-04-03T02:11:00;1023.7;;;0.4;81.4
41230;BME280;26964;50.428;19.218;2023-04-03T02:12:00;1023.7;;;0.4;81.3
41230;BME280;26964;50.428;19.218;2023-04-03T02:13:00;1023.5;;;0.4;81.3
41230;BME280;26964;50.428;19.218;2023-04-03T02:13:59;1023.6;;;0.4;81.3
41230;BME280;26964;50.428;19.218;2023-04-03T02:15:00;1023.5;;;0.4;81.3
41230;BME280;26964;50.428;19.218;2023-04-03T02:17:00;1023.5;;;0.4;81.3
41230;BME280;26964;50.428;19.218;2023-04-03T02:18:00;1023.6;;;0.4;81.3
41230;BME280;26964;50.428;19.218;2023-04-03T02:19:00;1023.7;;;0.4;81.3
41230;BME280;26964;50.428;19.218;2023-04-03T02:20:00;1023.6;;;0.4;81.2
41230;BME280;26964;50.428;19.218;2023-04-03T02:20:59;1023.6;;;0.4;81.2
41230;BME280;26964;50.428;19.218;2023-04-03T02:22:00;1023.7;;;0.4;81.2
41230;BME280;26964;50.428;19.218;2023-04-03T02:23:00;1023.6;;;0.4;81.2
41230;BME280;26964;50.428;19.218;2023-04-03T02:24:00;1023.6;;;0.4;81.1
41230;BME280;26964;50.428;19.218;2023-04-03T02:25:00;1023.6;;;0.4;81.1
41230;BME280;26964;50.428;19.218;2023-04-03T02:26:03;1023.6;;;0.4;81.1
41230;BME280;26964;50.428;19.218;2023-04-03T02:26:59;1023.6;;;0.4;81.0
41230;BME280;26964;50.428;19.218;2023-04-03T02:27:59;1023.7;;;0.4;81.0
41230;BME280;26964;50.428;19.218;2023-04-03T02:29:00;1023.7;;;0.4;81.0
41230;BME280;26964;50.428;19.218;2023-04-03T02:30:00;1023.5;;;0.3;81.0
41230;BME280;26964;50.428;19.218;2023-04-03T02:30:59;1023.6;;;0.3;81.0
41230;BME280;26964;50.428;19.218;2023-04-03T02:31:59;1023.7;;;0.3;81.0
41230;BME280;26964;50.428;19.218;2023-04-03T02:33:00;1023.6;;;0.3;81.0
41230;BME280;26964;50.428;19.218;2023-04-03T02:34:00;1023.7;;;0.3;81.0
41230;BME280;26964;50.428;19.218;2023-04-03T02:35:00;1023.6;;;0.3;81.0
41230;BME280;26964;50.428;19.218;2023-04-03T02:35:59;1023.8;;;0.3;81.0
41230;BME280;26964;50.428;19.218;2023-04-03T02:36:59;1023.7;;;0.3;81.0
41230;BME280;26964;50.428;19.218;2023-04-03T02:38:00;1023.7;;;0.3;81.0
41230;BME280;26964;50.428;19.218;2023-04-03T02:39:00;1023.7;;;0.3;81.0
41230;BME280;26964;50.428;19.218;2023-04-03T02:40:00;1023.7;;;0.3;81.0
41230;BME280;26964;50.428;19.218;2023-04-03T02:41:00;1023.7;;;0.3;81.0
41230;BME280;26964;50.428;19.218;2023-04-03T02:42:00;1023.6;;;0.3;81.0
41230;BME280;26964;50.428;19.218;2023-04-03T02:42:59;1023.7;;;0.3;81.0
41230;BME280;26964;50.428;19.218;2023-04-03T02:44:00;1023.7;;;0.3;81.0
41230;BME280;26964;50.428;19.218;2023-04-03T02:44:59;1023.6;;;0.3;81.0
41230;BME280;26964;50.428;19.218;2023-04-03T02:46:00;1023.7;;;0.3;81.0
41230;BME280;26964;50.428;19.218;2023-04-03T02:47:00;1023.7;;;0.3;81.0
41230;BME280;26964;50.428;19.218;2023-04-03T02:48:00;1023.8;;;0.3;81.0
41230;BME280;26964;50.428;19.218;2023-04-03T02:49:00;1023.7;;;0.3;81.1
41230;BME280;26964;50.428;19.218;2023-04-03T02:50:00;1023.7;;;0.3;81.0
41230;BME280;26964;50.428;19.218;2023-04-03T02:51:00;1023.7;;;0.3;80.9
41230;BME280;26964;50.428;19.218;2023-04-03T02:52:00;1023.7;;;0.3;81.0
41230;BME280;26964;50.428;19.218;2023-04-03T02:53:00;1023.7;;;0.3;81.0
41230;BME280;26964;50.428;19.218;2023-04-03T02:53:59;1023.7;;;0.3;81.0
41230;BME280;26964;50.428;19.218;2023-04-03T02:54:59;1023.7;;;0.3;81.0
41230;BME280;26964;50.428;19.218;2023-04-03T02:56:00;1023.7;;;0.3;80.9
41230;BME280;26964;50.428;19.218;2023-04-03T02:56:59;1023.6;;;0.3;80.9
41230;BME280;26964;50.428;19.218;2023-04-03T02:58:00;1023.8;;;0.3;80.9
41230;BME280;26964;50.428;19.218;2023-04-03T02:59:00;1023.7;;;0.3;80.9
41230;BME280;26964;50.428;19.218;2023-04-03T03:00:00;1023.7;;;0.3;80.9
41230;BME280;26964;50.428;19.218;2023-04-03T03:01:00;1023.7;;;0.3;80.9
41230;BME280;26964;50.428;19.218;2023-04-03T03:02:00;1023.7;;;0.3;80.9
41230;BME280;26964;50.428;19.218;2023-04-03T03:02:59;1023.7;;;0.3;80.9
41230;BME280;26964;50.428;19.218;2023-04-03T03:04:00;1023.8;;;0.3;80.9
41230;BME280;26964;50.428;19.218;2023-04-03T03:04:59;1023.8;;;0.3;80.9
41230;BME280;26964;50.428;19.218;2023-04-03T03:06:02;1023.7;;;0.3;80.9
41230;BME280;26964;50.428;19.218;2023-04-03T03:07:00;1023.7;;;0.3;80.9
41230;BME280;26964;50.428;19.218;2023-04-03T03:08:00;1023.8;;;0.3;80.8
41230;BME280;26964;50.428;19.218;2023-04-03T03:09:00;1023.7;;;0.3;80.9
41230;BME280;26964;50.428;19.218;2023-04-03T03:10:00;1023.7;;;0.3;80.9
41230;BME280;26964;50.428;19.218;2023-04-03T03:10:59;1023.8;;;0.3;80.9
41230;BME280;26964;50.428;19.218;2023-04-03T03:12:00;1023.7;;;0.3;80.9
41230;BME280;26964;50.428;19.218;2023-04-03T03:13:00;1023.8;;;0.3;80.8
41230;BME280;26964;50.428;19.218;2023-04-03T03:14:00;1023.8;;;0.3;80.8
41230;BME280;26964;50.428;19.218;2023-04-03T03:15:00;1023.7;;;0.3;80.8
41230;BME280;26964;50.428;19.218;2023-04-03T03:15:59;1023.8;;;0.3;80.8
41230;BME280;26964;50.428;19.218;2023-04-03T03:17:00;1023.7;;;0.2;80.8
41230;BME280;26964;50.428;19.218;2023-04-03T03:18:00;1023.7;;;0.2;80.8
41230;BME280;26964;50.428;19.218;2023-04-03T03:19:00;1023.7;;;0.2;80.8
41230;BME280;26964;50.428;19.218;2023-04-03T03:20:00;1023.7;;;0.2;80.8
41230;BME280;26964;50.428;19.218;2023-04-03T03:21:01;1023.7;;;0.2;80.8
41230;BME280;26964;50.428;19.218;2023-04-03T03:22:00;1023.8;;;0.2;80.8
41230;BME280;26964;50.428;19.218;2023-04-03T03:22:59;1023.8;;;0.2;80.7
41230;BME280;26964;50.428;19.218;2023-04-03T03:24:00;1023.7;;;0.2;80.8
41230;BME280;26964;50.428;19.218;2023-04-03T03:24:59;1023.9;;;0.2;80.8
41230;BME280;26964;50.428;19.218;2023-04-03T03:26:01;1023.8;;;0.2;80.7
41230;BME280;26964;50.428;19.218;2023-04-03T03:26:59;1023.8;;;0.1;80.6
41230;BME280;26964;50.428;19.218;2023-04-03T03:28:00;1023.8;;;0.1;80.6
41230;BME280;26964;50.428;19.218;2023-04-03T03:29:00;1023.8;;;0.1;80.6
41230;BME280;26964;50.428;19.218;2023-04-03T03:30:00;1023.9;;;0.1;80.6
41230;BME280;26964;50.428;19.218;2023-04-03T03:30:59;1023.8;;;0.1;80.6
41230;BME280;26964;50.428;19.218;2023-04-03T03:32:00;1023.9;;;0.1;80.7
41230;BME280;26964;50.428;19.218;2023-04-03T03:33:00;1023.9;;;0.1;80.7
41230;BME280;26964;50.428;19.218;2023-04-03T03:34:00;1023.9;;;0.1;80.6
41230;BME280;26964;50.428;19.218;2023-04-03T03:35:00;1023.9;;;0.1;80.6
41230;BME280;26964;50.428;19.218;2023-04-03T03:35:59;1023.9;;;0.1;80.6
41230;BME280;26964;50.428;19.218;2023-04-03T03:37:00;1023.9;;;0.1;80.5
41230;BME280;26964;50.428;19.218;2023-04-03T03:37:59;1023.9;;;0.0;80.6
41230;BME280;26964;50.428;19.218;2023-04-03T03:39:00;1024.0;;;0.0;80.6
41230;BME280;26964;50.428;19.218;2023-04-03T03:40:00;1024.0;;;0.0;80.5
41230;BME280;26964;50.428;19.218;2023-04-03T03:41:00;1024.0;;;0.0;80.5
41230;BME280;26964;50.428;19.218;2023-04-03T03:42:00;1023.9;;;0.0;80.5
41230;BME280;26964;50.428;19.218;2023-04-03T03:43:00;1024.0;;;0.0;80.5
41230;BME280;26964;50.428;19.218;2023-04-03T03:44:00;1024.0;;;-0.0;80.4
41230;BME280;26964;50.428;19.218;2023-04-03T03:44:59;1024.0;;;-0.0;80.4
41230;BME280;26964;50.428;19.218;2023-04-03T03:45:59;1024.0;;;-0.0;80.4
41230;BME280;26964;50.428;19.218;2023-04-03T03:47:00;1024.0;;;-0.0;80.5
41230;BME280;26964;50.428;19.218;2023-04-03T03:47:59;1024.0;;;-0.1;80.5
41230;BME280;26964;50.428;19.218;2023-04-03T03:48:59;1024.1;;;-0.1;80.3
41230;BME280;26964;50.428;19.218;2023-04-03T03:49:59;1024.0;;;-0.1;80.3
41230;BME280;26964;50.428;19.218;2023-04-03T03:50:59;1023.9;;;-0.1;80.4
41230;BME280;26964;50.428;19.218;2023-04-03T03:52:00;1024.0;;;-0.1;80.3
41230;BME280;26964;50.428;19.218;2023-04-03T03:52:59;1023.9;;;-0.1;80.3
41230;BME280;26964;50.428;19.218;2023-04-03T03:54:00;1024.0;;;-0.1;80.3
41230;BME280;26964;50.428;19.218;2023-04-03T03:55:00;1024.0;;;-0.1;80.3
41230;BME280;26964;50.428;19.218;2023-04-03T03:56:00;1024.0;;;-0.1;80.4
41230;BME280;26964;50.428;19.218;2023-04-03T03:56:59;1023.8;;;-0.1;80.4
41230;BME280;26964;50.428;19.218;2023-04-03T03:58:00;1024.0;;;-0.1;80.4
41230;BME280;26964;50.428;19.218;2023-04-03T03:59:00;1024.0;;;-0.1;80.4
41230;BME280;26964;50.428;19.218;2023-04-03T04:00:00;1023.9;;;-0.1;80.4
41230;BME280;26964;50.428;19.218;2023-04-03T04:01:10;1024.0;;;-0.1;80.3
41230;BME280;26964;50.428;19.218;2023-04-03T04:01:59;1024.0;;;-0.1;80.3
41230;BME280;26964;50.428;19.218;2023-04-03T04:03:00;1024.1;;;-0.2;80.3
41230;BME280;26964;50.428;19.218;2023-04-03T04:04:00;1024.0;;;-0.2;80.3
41230;BME280;26964;50.428;19.218;2023-04-03T04:05:10;1024.0;;;-0.2;80.3
41230;BME280;26964;50.428;19.218;2023-04-03T04:06:00;1024.0;;;-0.2;80.3
41230;BME280;26964;50.428;19.218;2023-04-03T04:07:00;1024.1;;;-0.2;80.3
41230;BME280;26964;50.428;19.218;2023-04-03T04:08:00;1024.0;;;-0.2;80.3
41230;BME280;26964;50.428;19.218;2023-04-03T04:09:00;1024.2;;;-0.2;80.3
41230;BME280;26964;50.428;19.218;2023-04-03T04:09:59;1024.1;;;-0.2;80.2
41230;BME280;26964;50.428;19.218;2023-04-03T04:10:59;1024.1;;;-0.2;80.2
41230;BME280;26964;50.428;19.218;2023-04-03T04:12:00;1024.1;;;-0.2;80.2
41230;BME280;26964;50.428;19.218;2023-04-03T04:13:00;1024.1;;;-0.2;80.2
41230;BME280;26964;50.428;19.218;2023-04-03T04:14:00;1024.2;;;-0.2;80.2
41230;BME280;26964;50.428;19.218;2023-04-03T04:15:00;1024.1;;;-0.2;80.2
41230;BME280;26964;50.428;19.218;2023-04-03T04:16:00;1024.2;;;-0.2;80.2
41230;BME280;26964;50.428;19.218;2023-04-03T04:17:00;1024.1;;;-0.2;80.2
41230;BME280;26964;50.428;19.218;2023-04-03T04:17:59;1024.2;;;-0.2;80.3
41230;BME280;26964;50.428;19.218;2023-04-03T04:19:00;1024.2;;;-0.3;80.2
41230;BME280;26964;50.428;19.218;2023-04-03T04:20:00;1024.2;;;-0.3;80.2
41230;BME280;26964;50.428;19.218;2023-04-03T04:21:00;1024.2;;;-0.3;80.3
41230;BME280;26964;50.428;19.218;2023-04-03T04:21:59;1024.2;;;-0.3;80.2
41230;BME280;26964;50.428;19.218;2023-04-03T04:22:59;1024.2;;;-0.3;80.2
41230;BME280;26964;50.428;19.218;2023-04-03T04:24:00;1024.3;;;-0.3;80.2
41230;BME280;26964;50.428;19.218;2023-04-03T04:25:00;1024.2;;;-0.3;80.2
41230;BME280;26964;50.428;19.218;2023-04-03T04:26:00;1024.2;;;-0.3;80.2
41230;BME280;26964;50.428;19.218;2023-04-03T04:27:00;1024.2;;;-0.3;80.2
41230;BME280;26964;50.428;19.218;2023-04-03T04:28:00;1024.2;;;-0.3;80.2
41230;BME280;26964;50.428;19.218;2023-04-03T04:29:00;1024.2;;;-0.3;80.2
41230;BME280;26964;50.428;19.218;2023-04-03T04:30:00;1024.3;;;-0.3;80.2
41230;BME280;26964;50.428;19.218;2023-04-03T04:31:01;1024.3;;;-0.3;80.3
41230;BME280;26964;50.428;19.218;2023-04-03T04:32:00;1024.3;;;-0.3;80.3
41230;BME280;26964;50.428;19.218;2023-04-03T04:32:59;1024.3;;;-0.4;80.3
41230;BME280;26964;50.428;19.218;2023-04-03T04:33:59;1024.3;;;-0.4;80.2
41230;BME280;26964;50.428;19.218;2023-04-03T04:35:01;1024.3;;;-0.4;80.2
41230;BME280;26964;50.428;19.218;2023-04-03T04:36:00;1024.4;;;-0.4;80.2
41230;BME280;26964;50.428;19.218;2023-04-03T04:37:00;1024.3;;;-0.4;80.2
41230;BME280;26964;50.428;19.218;2023-04-03T04:38:00;1024.4;;;-0.4;80.3
41230;BME280;26964;50.428;19.218;2023-04-03T04:39:00;1024.3;;;-0.4;80.2
41230;BME280;26964;50.428;19.218;2023-04-03T04:40:00;1024.3;;;-0.4;80.3
41230;BME280;26964;50.428;19.218;2023-04-03T04:41:00;1024.4;;;-0.4;80.2
41230;BME280;26964;50.428;19.218;2023-04-03T04:42:00;1024.4;;;-0.4;80.3
41230;BME280;26964;50.428;19.218;2023-04-03T04:42:59;1024.4;;;-0.4;80.2
41230;BME280;26964;50.428;19.218;2023-04-03T04:43:59;1024.4;;;-0.4;80.2
41230;BME280;26964;50.428;19.218;2023-04-03T04:45:00;1024.5;;;-0.4;80.2
41230;BME280;26964;50.428;19.218;2023-04-03T04:46:01;1024.5;;;-0.4;80.2
41230;BME280;26964;50.428;19.218;2023-04-03T04:47:00;1024.5;;;-0.4;80.2
41230;BME280;26964;50.428;19.218;2023-04-03T04:48:00;1024.4;;;-0.4;80.3
41230;BME280;26964;50.428;19.218;2023-04-03T04:49:00;1024.5;;;-0.4;80.2
41230;BME280;26964;50.428;19.218;2023-04-03T04:50:00;1024.5;;;-0.5;80.2
41230;BME280;26964;50.428;19.218;2023-04-03T04:51:00;1024.4;;;-0.5;80.2
41230;BME280;26964;50.428;19.218;2023-04-03T04:52:00;1024.5;;;-0.5;80.2
41230;BME280;26964;50.428;19.218;2023-04-03T04:53:00;1024.5;;;-0.5;80.2
41230;BME280;26964;50.428;19.218;2023-04-03T04:54:00;1024.6;;;-0.5;80.1
41230;BME280;26964;50.428;19.218;2023-04-03T04:54:59;1024.5;;;-0.5;80.1
41230;BME280;26964;50.428;19.218;2023-04-03T04:56:00;1024.5;;;-0.5;80.1
41230;BME280;26964;50.428;19.218;2023-04-03T04:56:59;1024.6;;;-0.5;80.1
41230;BME280;26964;50.428;19.218;2023-04-03T04:58:00;1024.4;;;-0.5;80.2
41230;BME280;26964;50.428;19.218;2023-04-03T04:59:00;1024.5;;;-0.5;80.2
41230;BME280;26964;50.428;19.218;2023-04-03T05:00:00;1024.5;;;-0.5;80.2
41230;BME280;26964;50.428;19.218;2023-04-03T05:00:59;1024.5;;;-0.5;80.2
41230;BME280;26964;50.428;19.218;2023-04-03T05:02:00;1024.6;;;-0.5;80.2
41230;BME280;26964;50.428;19.218;2023-04-03T05:03:00;1024.5;;;-0.5;80.1
41230;BME280;26964;50.428;19.218;2023-04-03T05:04:00;1024.6;;;-0.5;80.2
41230;BME280;26964;50.428;19.218;2023-04-03T05:05:00;1024.6;;;-0.5;80.2
41230;BME280;26964;50.428;19.218;2023-04-03T05:05:59;1024.6;;;-0.5;80.2
41230;BME280;26964;50.428;19.218;2023-04-03T05:07:00;1024.6;;;-0.5;80.1
41230;BME280;26964;50.428;19.218;2023-04-03T05:07:59;1024.6;;;-0.6;80.1
41230;BME280;26964;50.428;19.218;2023-04-03T05:08:59;1024.6;;;-0.6;80.1
41230;BME280;26964;50.428;19.218;2023-04-03T05:10:00;1024.6;;;-0.6;80.0
41230;BME280;26964;50.428;19.218;2023-04-03T05:11:00;1024.6;;;-0.6;80.1
41230;BME280;26964;50.428;19.218;2023-04-03T05:12:00;1024.6;;;-0.6;80.0
41230;BME280;26964;50.428;19.218;2023-04-03T05:13:00;1024.7;;;-0.6;80.1
41230;BME280;26964;50.428;19.218;2023-04-03T05:14:00;1024.7;;;-0.6;80.1
41230;BME280;26964;50.428;19.218;2023-04-03T05:15:00;1024.7;;;-0.6;80.1
41230;BME280;26964;50.428;19.218;2023-04-03T05:16:00;1024.7;;;-0.6;80.1
41230;BME280;26964;50.428;19.218;2023-04-03T05:16:59;1024.7;;;-0.6;80.1
41230;BME280;26964;50.428;19.218;2023-04-03T05:18:00;1024.8;;;-0.6;80.1
41230;BME280;26964;50.428;19.218;2023-04-03T05:19:00;1024.7;;;-0.6;80.0
41230;BME280;26964;50.428;19.218;2023-04-03T05:20:00;1024.7;;;-0.6;80.1
41230;BME280;26964;50.428;19.218;2023-04-03T05:21:00;1024.8;;;-0.6;80.1
41230;BME280;26964;50.428;19.218;2023-04-03T05:22:00;1024.9;;;-0.6;80.1
41230;BME280;26964;50.428;19.218;2023-04-03T05:23:00;1024.8;;;-0.6;80.1
41230;BME280;26964;50.428;19.218;2023-04-03T05:23:59;1024.9;;;-0.6;80.1
41230;BME280;26964;50.428;19.218;2023-04-03T05:25:00;1024.9;;;-0.6;80.1
41230;BME280;26964;50.428;19.218;2023-04-03T05:26:00;1024.9;;;-0.6;80.1
41230;BME280;26964;50.428;19.218;2023-04-03T05:27:00;1025.0;;;-0.6;80.1
41230;BME280;26964;50.428;19.218;2023-04-03T05:27:59;1024.9;;;-0.6;80.0
41230;BME280;26964;50.428;19.218;2023-04-03T05:29:00;1024.9;;;-0.6;80.0
41230;BME280;26964;50.428;19.218;2023-04-03T05:30:00;1024.9;;;-0.7;80.0
41230;BME280;26964;50.428;19.218;2023-04-03T05:31:00;1024.9;;;-0.7;80.0
41230;BME280;26964;50.428;19.218;2023-04-03T05:32:00;1024.9;;;-0.7;80.0
41230;BME280;26964;50.428;19.218;2023-04-03T05:32:59;1024.9;;;-0.7;80.0
41230;BME280;26964;50.428;19.218;2023-04-03T05:33:59;1024.9;;;-0.7;80.0
41230;BME280;26964;50.428;19.218;2023-04-03T05:35:00;1025.0;;;-0.7;80.0
41230;BME280;26964;50.428;19.218;2023-04-03T05:36:03;1024.9;;;-0.7;80.0
41230;BME280;26964;50.428;19.218;2023-04-03T05:37:00;1024.9;;;-0.6;80.1
41230;BME280;26964;50.428;19.218;2023-04-03T05:38:00;1025.0;;;-0.6;80.0
41230;BME280;26964;50.428;19.218;2023-04-03T05:38:59;1025.0;;;-0.6;80.0
41230;BME280;26964;50.428;19.218;2023-04-03T05:40:00;1024.9;;;-0.6;79.9
41230;BME280;26964;50.428;19.218;2023-04-03T05:41:00;1025.0;;;-0.6;79.9